Time;durP1;ratioP1;P1;durP2;ratioP2;P2;SDS_P1;SDS_P2;PMS_P1;PMS_P2;Temp;Humidity;BMP_temperature;BMP_pressure;BME280_temperature;BME280_humidity;BME280_pressure;Samples;Min_cycle;Max_cycle;Signal;HPM_P1;HPM_P2
2023/01/28 00:01:09;;;;;;;;;33.25;27.00;;;;;;;;5012720;28;46764;-81
2023/01/28 00:03:35;;;;;;;;;30.75;26.75;;;;;;;;5003122;28;45421;-82
2023/01/28 00:06:04;;;;;;;;;27.00;21.50;;;;;;;;5002175;28;45403;-81
2023/01/28 00:08:29;;;;;;;;;26.25;20.75;;;;;;;;5009847;28;45462;-82
2023/01/28 00:10:57;;;;;;;;;32.50;25.25;;;;;;;;5018245;28;45272;-81
2023/01/28 00:13:22;;;;;;;;;28.75;22.50;;;;;;;;5011277;28;45409;-81
2023/01/28 00:15:53;;;;;;;;;27.00;24.50;;;;;;;;5026175;28;44801;-81
2023/01/28 00:18:18;;;;;;;;;24.75;21.00;;;;;;;;5017294;28;45568;-81
2023/01/28 00:20:44;;;;;;;;;32.00;26.00;;;;;;;;5019355;28;45646;-82
2023/01/28 00:23:09;;;;;;;;;26.00;23.00;;;;;;;;5019774;28;44690;-81
2023/01/28 00:25:34;;;;;;;;;28.75;25.25;;;;;;;;5020868;28;45304;-82
2023/01/28 00:27:59;;;;;;;;;24.25;23.75;;;;;;;;5014420;28;45191;-81
2023/01/28 00:30:24;;;;;;;;;28.75;19.75;;;;;;;;5023095;28;46315;-82
2023/01/28 00:32:50;;;;;;;;;30.75;26.50;;;;;;;;5017403;28;44689;-81
2023/01/28 00:35:15;;;;;;;;;31.75;25.25;;;;;;;;5012699;28;44760;-81
2023/01/28 00:37:40;;;;;;;;;31.00;23.00;;;;;;;;5006600;28;46017;-82
2023/01/28 00:40:07;;;;;;;;;27.50;24.75;;;;;;;;5020717;28;47504;-81
2023/01/28 00:42:33;;;;;;;;;29.00;23.50;;;;;;;;5012738;28;45205;-82
2023/01/28 00:44:58;;;;;;;;;29.50;24.25;;;;;;;;5021576;28;44750;-81
2023/01/28 00:47:23;;;;;;;;;25.75;18.75;;;;;;;;5007757;28;45195;-82
2023/01/28 00:49:48;;;;;;;;;29.75;25.25;;;;;;;;5021127;28;45350;-81
2023/01/28 00:52:13;;;;;;;;;29.50;25.50;;;;;;;;5011061;28;45329;-81
2023/01/28 00:54:39;;;;;;;;;25.75;21.50;;;;;;;;5019463;28;45319;-82
2023/01/28 00:57:04;;;;;;;;;33.75;25.00;;;;;;;;5010860;28;45251;-81
2023/01/28 00:59:29;;;;;;;;;28.75;24.50;;;;;;;;5008148;28;45344;-81
2023/01/28 01:02:11;;;;;;;;;31.50;24.75;;;;;;;;5011950;28;45294;-81
2023/01/28 01:04:36;;;;;;;;;27.75;21.25;;;;;;;;5008386;28;45245;-81
2023/01/28 01:07:02;;;;;;;;;25.75;19.50;;;;;;;;5013293;28;45418;-81
2023/01/28 01:09:27;;;;;;;;;22.25;19.25;;;;;;;;5010057;28;47872;-81
2023/01/28 01:11:52;;;;;;;;;32.00;24.25;;;;;;;;5012713;28;45467;-81
2023/01/28 01:14:17;;;;;;;;;32.00;24.50;;;;;;;;5010295;28;45291;-81
2023/01/28 01:16:42;;;;;;;;;26.50;24.25;;;;;;;;5016310;28;46846;-82
2023/01/28 01:19:08;;;;;;;;;27.25;22.00;;;;;;;;5013709;28;45426;-81
2023/01/28 01:21:33;;;;;;;;;28.75;20.50;;;;;;;;5013276;28;45184;-81
2023/01/28 01:23:58;;;;;;;;;27.75;21.25;;;;;;;;5016271;28;45558;-81
2023/01/28 01:26:26;;;;;;;;;37.75;24.75;;;;;;;;5017583;28;45706;-81
2023/01/28 01:28:51;;;;;;;;;23.50;22.50;;;;;;;;5015016;28;45528;-80
2023/01/28 01:31:17;;;;;;;;;31.50;25.75;;;;;;;;5017312;28;45592;-81
2023/01/28 01:33:44;;;;;;;;;21.25;20.50;;;;;;;;5015840;28;45503;-81
2023/01/28 01:36:10;;;;;;;;;30.75;19.50;;;;;;;;5016242;28;45803;-81
2023/01/28 01:38:35;;;;;;;;;30.50;24.25;;;;;;;;5011637;28;46148;-81
2023/01/28 01:41:01;;;;;;;;;20.25;17.50;;;;;;;;5016738;28;45278;-81
2023/01/28 01:43:45;;;;;;;;;23.75;22.25;;;;;;;;5006430;28;45336;-81
2023/01/28 01:46:11;;;;;;;;;15.50;11.50;;;;;;;;5014990;28;45688;-81
2023/01/28 01:48:37;;;;;;;;;23.00;17.50;;;;;;;;5016853;28;46340;-81
2023/01/28 01:51:07;;;;;;;;;25.75;18.50;;;;;;;;5017588;28;45247;-83
2023/01/28 01:53:34;;;;;;;;;20.75;18.00;;;;;;;;5011146;28;45331;-81
2023/01/28 01:56:01;;;;;;;;;28.25;22.00;;;;;;;;5015309;28;45438;-81
2023/01/28 01:58:28;;;;;;;;;25.50;20.50;;;;;;;;5006910;28;47034;-81
2023/01/28 02:00:53;;;;;;;;;24.00;22.50;;;;;;;;5015263;28;45549;-81
2023/01/28 02:03:23;;;;;;;;;23.25;21.50;;;;;;;;5009966;28;44913;-81
2023/01/28 02:05:49;;;;;;;;;26.75;22.75;;;;;;;;5016507;28;45233;-81
2023/01/28 02:08:20;;;;;;;;;26.50;20.25;;;;;;;;5014618;28;45708;-80
2023/01/28 02:10:51;;;;;;;;;17.25;17.25;;;;;;;;5016232;28;45463;-81
2023/01/28 02:13:17;;;;;;;;;27.50;21.25;;;;;;;;5006915;28;45166;-81
2023/01/28 02:15:43;;;;;;;;;18.25;16.50;;;;;;;;5027523;28;47421;-83
2023/01/28 02:18:08;;;;;;;;;27.75;22.50;;;;;;;;5011202;28;45486;-82
2023/01/28 02:20:51;;;;;;;;;31.50;25.25;;;;;;;;5019591;28;45385;-81
2023/01/28 02:23:19;;;;;;;;;29.00;21.25;;;;;;;;5006702;28;45264;-81
2023/01/28 02:26:02;;;;;;;;;33.25;27.00;;;;;;;;5016679;28;45327;-81
2023/01/28 02:28:36;;;;;;;;;21.25;19.00;;;;;;;;5009823;28;47898;-81
2023/01/28 02:31:02;;;;;;;;;31.00;22.25;;;;;;;;5017623;28;45478;-81
2023/01/28 02:33:27;;;;;;;;;28.00;21.75;;;;;;;;5012272;28;45292;-81
2023/01/28 02:35:53;;;;;;;;;27.25;23.25;;;;;;;;5016103;28;45908;-81
2023/01/28 02:38:24;;;;;;;;;24.25;21.00;;;;;;;;5006350;28;45627;-81
2023/01/28 02:41:01;;;;;;;;;27.25;24.50;;;;;;;;5016611;28;45265;-81
2023/01/28 02:43:38;;;;;;;;;24.50;23.25;;;;;;;;5007843;28;45438;-82
2023/01/28 02:49:06;;;;;;;;;25.75;19.75;;;;;;;;5014672;28;45362;-82
2023/01/28 02:51:53;;;;;;;;;29.75;22.00;;;;;;;;5060728;28;45390;-80
2023/01/28 02:54:38;;;;;;;;;22.25;16.25;;;;;;;;5064173;28;45288;-81
2023/01/28 02:57:10;;;;;;;;;28.75;24.25;;;;;;;;5042709;28;45240;-80
2023/01/28 02:59:41;;;;;;;;;31.50;26.00;;;;;;;;5045836;28;45334;-80
2023/01/28 03:02:10;;;;;;;;;15.50;11.75;;;;;;;;5046802;28;45768;-81
2023/01/28 03:04:58;;;;;;;;;35.25;27.00;;;;;;;;5065286;28;45314;-81
2023/01/28 03:07:26;;;;;;;;;30.50;23.25;;;;;;;;5061070;27;45296;-80
2023/01/28 03:09:52;;;;;;;;;30.25;24.50;;;;;;;;5068813;28;45400;-80
2023/01/28 03:37:42;;;;;;;;;22.00;20.25;;;;;;;;5050593;28;45495;-81
2023/01/28 03:40:07;;;;;;;;;24.00;20.00;;;;;;;;5060923;28;45770;-80
2023/01/28 03:42:33;;;;;;;;;30.00;24.00;;;;;;;;5054479;28;45269;-81
2023/01/28 03:45:00;;;;;;;;;29.75;24.75;;;;;;;;5061200;27;46110;-80
2023/01/28 03:47:26;;;;;;;;;25.75;20.50;;;;;;;;5055673;27;45608;-80
2023/01/28 03:49:52;;;;;;;;;30.75;25.25;;;;;;;;5058872;28;45299;-80
2023/01/28 03:52:29;;;;;;;;;29.00;22.50;;;;;;;;5032559;28;46039;-80
2023/01/28 03:54:54;;;;;;;;;32.75;24.75;;;;;;;;5058086;28;45231;-81
2023/01/28 03:57:20;;;;;;;;;23.50;22.75;;;;;;;;5059206;28;45336;-80
2023/01/28 03:59:48;;;;;;;;;25.75;19.75;;;;;;;;5061556;28;45384;-81
2023/01/28 04:02:14;;;;;;;;;29.00;23.00;;;;;;;;5047830;28;45415;-80
2023/01/28 04:04:39;;;;;;;;;32.00;22.50;;;;;;;;5041919;28;45285;-80
2023/01/28 04:07:07;;;;;;;;;29.75;24.00;;;;;;;;5038211;28;45439;-80
2023/01/28 04:09:32;;;;;;;;;29.50;22.25;;;;;;;;5041680;28;45388;-80
2023/01/28 04:11:58;;;;;;;;;22.75;21.25;;;;;;;;5039178;27;45424;-80
2023/01/28 04:14:23;;;;;;;;;24.25;19.75;;;;;;;;5042407;27;46137;-80
2023/01/28 04:16:48;;;;;;;;;25.75;20.50;;;;;;;;5036761;28;45320;-81
2023/01/28 04:19:14;;;;;;;;;23.50;21.25;;;;;;;;5027145;28;45335;-80
2023/01/28 04:21:39;;;;;;;;;24.50;20.75;;;;;;;;5036386;28;45369;-80
2023/01/28 04:24:05;;;;;;;;;24.25;17.50;;;;;;;;5045766;28;45543;-79
2023/01/28 04:26:30;;;;;;;;;23.25;19.25;;;;;;;;5022907;28;45393;-79
2023/01/28 04:28:55;;;;;;;;;27.00;20.00;;;;;;;;5046872;28;45402;-80
2023/01/28 04:31:22;;;;;;;;;27.00;24.75;;;;;;;;5019875;28;47051;-80
2023/01/28 04:33:47;;;;;;;;;38.25;23.50;;;;;;;;5048182;28;45558;-79
2023/01/28 04:36:12;;;;;;;;;30.75;26.00;;;;;;;;5037699;28;45243;-80
2023/01/28 04:38:38;;;;;;;;;30.50;24.75;;;;;;;;5036304;28;45196;-81
2023/01/28 04:41:03;;;;;;;;;31.50;23.50;;;;;;;;5040422;28;45285;-79
2023/01/28 04:43:28;;;;;;;;;29.50;23.50;;;;;;;;5045247;28;45301;-83
2023/01/28 04:45:53;;;;;;;;;27.50;23.75;;;;;;;;5031022;27;45424;-81
2023/01/28 04:48:18;;;;;;;;;40.50;31.25;;;;;;;;5044776;28;45469;-82
2023/01/28 04:50:44;;;;;;;;;27.25;25.25;;;;;;;;5021388;28;45481;-82
2023/01/28 04:53:10;;;;;;;;;30.25;26.75;;;;;;;;5014583;28;45965;-81
2023/01/28 04:55:35;;;;;;;;;28.00;25.25;;;;;;;;5025969;28;45413;-81
2023/01/28 04:58:00;;;;;;;;;35.50;22.00;;;;;;;;5026028;28;45340;-79
2023/01/28 05:00:26;;;;;;;;;34.50;24.50;;;;;;;;5027276;28;45375;-84
2023/01/28 05:02:51;;;;;;;;;25.00;24.00;;;;;;;;5016923;28;45282;-79
2023/01/28 05:05:16;;;;;;;;;33.00;25.25;;;;;;;;5022511;28;45333;-77
2023/01/28 05:07:41;;;;;;;;;29.75;23.50;;;;;;;;5016232;28;45325;-81
2023/01/28 05:10:07;;;;;;;;;38.25;33.00;;;;;;;;5024405;28;45272;-80
2023/01/28 05:12:33;;;;;;;;;37.75;27.25;;;;;;;;5016786;27;45369;-80
2023/01/28 05:14:59;;;;;;;;;32.75;25.50;;;;;;;;5016172;27;45319;-79
2023/01/28 05:17:25;;;;;;;;;32.00;29.25;;;;;;;;5012726;28;45302;-80
2023/01/28 05:19:50;;;;;;;;;32.75;24.25;;;;;;;;5027806;28;46216;-82
2023/01/28 05:22:15;;;;;;;;;30.50;25.75;;;;;;;;5018059;28;47237;-79
2023/01/28 05:24:41;;;;;;;;;26.75;24.75;;;;;;;;5028660;28;45149;-79
2023/01/28 05:27:06;;;;;;;;;26.25;20.75;;;;;;;;5025258;28;45440;-81
2023/01/28 05:29:31;;;;;;;;;26.50;25.00;;;;;;;;5022888;28;45650;-79
2023/01/28 05:31:56;;;;;;;;;28.00;23.50;;;;;;;;5020471;28;46550;-79
2023/01/28 05:34:22;;;;;;;;;30.50;25.25;;;;;;;;5030611;28;45427;-80
2023/01/28 05:36:47;;;;;;;;;31.75;24.25;;;;;;;;5020181;28;45686;-78
2023/01/28 05:39:12;;;;;;;;;32.50;27.50;;;;;;;;5029904;28;45588;-80
2023/01/28 05:41:38;;;;;;;;;32.00;28.50;;;;;;;;5020245;28;45439;-81
2023/01/28 05:44:03;;;;;;;;;33.50;28.25;;;;;;;;5026289;28;45276;-80
2023/01/28 05:46:28;;;;;;;;;24.25;23.25;;;;;;;;5020314;27;45508;-78
2023/01/28 05:48:53;;;;;;;;;29.75;24.75;;;;;;;;5029654;28;45324;-79
2023/01/28 05:51:18;;;;;;;;;33.50;24.75;;;;;;;;5036180;28;46581;-79
2023/01/28 05:53:44;;;;;;;;;35.00;25.25;;;;;;;;5047710;27;45311;-79
2023/01/28 05:56:09;;;;;;;;;40.25;29.00;;;;;;;;5044033;28;45384;-78
2023/01/28 05:58:34;;;;;;;;;36.75;28.00;;;;;;;;5054538;28;45437;-79
2023/01/28 06:00:59;;;;;;;;;21.00;16.25;;;;;;;;5043412;28;45352;-78
2023/01/28 06:03:24;;;;;;;;;36.75;28.50;;;;;;;;5041909;28;45436;-80
2023/01/28 06:05:50;;;;;;;;;33.75;29.50;;;;;;;;5041171;28;45850;-79
2023/01/28 06:08:15;;;;;;;;;33.00;29.50;;;;;;;;5042189;28;45284;-78
2023/01/28 06:10:40;;;;;;;;;27.50;20.75;;;;;;;;5041348;28;45339;-79
2023/01/28 06:13:05;;;;;;;;;37.75;28.00;;;;;;;;5038394;27;45350;-79
2023/01/28 06:15:31;;;;;;;;;33.75;29.50;;;;;;;;5041653;28;45461;-80
2023/01/28 06:17:56;;;;;;;;;36.00;26.75;;;;;;;;5037376;28;45363;-78
2023/01/28 06:20:21;;;;;;;;;28.50;24.25;;;;;;;;5028136;28;46973;-77
2023/01/28 06:22:49;;;;;;;;;34.00;29.25;;;;;;;;5034749;28;45345;-77
2023/01/28 06:25:14;;;;;;;;;29.00;23.75;;;;;;;;5047053;28;45285;-77
2023/01/28 06:27:39;;;;;;;;;41.00;26.00;;;;;;;;5034374;28;44881;-79
2023/01/28 06:30:05;;;;;;;;;29.75;22.00;;;;;;;;5045899;28;45395;-77
2023/01/28 06:32:31;;;;;;;;;26.25;25.50;;;;;;;;5039576;28;45245;-77
2023/01/28 06:34:56;;;;;;;;;40.50;25.75;;;;;;;;5047884;27;45185;-76
2023/01/28 06:37:21;;;;;;;;;30.25;22.50;;;;;;;;5018979;28;46291;-77
2023/01/28 06:39:46;;;;;;;;;33.50;27.50;;;;;;;;5038147;28;46581;-80
2023/01/28 06:42:12;;;;;;;;;35.00;25.00;;;;;;;;5032921;27;45347;-79
2023/01/28 06:44:37;;;;;;;;;31.75;23.00;;;;;;;;5048488;27;44798;-80
2023/01/28 06:47:02;;;;;;;;;39.00;34.25;;;;;;;;5042062;28;45682;-81
2023/01/28 06:49:27;;;;;;;;;28.25;23.00;;;;;;;;5022034;28;45998;-80
2023/01/28 06:51:53;;;;;;;;;27.75;24.50;;;;;;;;5039495;28;45373;-80
2023/01/28 06:54:18;;;;;;;;;32.50;24.25;;;;;;;;5050031;28;45316;-80
2023/01/28 06:56:43;;;;;;;;;24.75;22.50;;;;;;;;5042864;28;45432;-76
2023/01/28 06:59:08;;;;;;;;;23.50;22.25;;;;;;;;5044340;28;45403;-79
2023/01/28 07:01:33;;;;;;;;;23.25;21.75;;;;;;;;5040095;28;45679;-78
2023/01/28 07:03:58;;;;;;;;;38.50;34.00;;;;;;;;5042813;28;45484;-79
2023/01/28 07:06:24;;;;;;;;;24.50;20.25;;;;;;;;5034371;28;45484;-79
2023/01/28 07:08:49;;;;;;;;;32.50;27.75;;;;;;;;5039655;28;45344;-78
2023/01/28 07:11:14;;;;;;;;;26.75;21.75;;;;;;;;5037576;28;45377;-80
2023/01/28 07:13:40;;;;;;;;;24.25;21.75;;;;;;;;5019585;27;45597;-82
2023/01/28 07:16:05;;;;;;;;;25.00;18.75;;;;;;;;5021398;28;46278;-77
2023/01/28 07:18:30;;;;;;;;;27.50;24.75;;;;;;;;5022289;28;47328;-80
2023/01/28 07:20:56;;;;;;;;;27.75;23.50;;;;;;;;5043971;28;45553;-80
2023/01/28 07:23:21;;;;;;;;;24.75;22.75;;;;;;;;5023500;28;45506;-80
2023/01/28 07:25:46;;;;;;;;;21.50;21.00;;;;;;;;5029043;28;45679;-78
2023/01/28 07:28:11;;;;;;;;;29.75;21.75;;;;;;;;5040279;28;45431;-77
2023/01/28 07:30:37;;;;;;;;;28.00;24.50;;;;;;;;5048675;28;45187;-79
2023/01/28 07:33:02;;;;;;;;;35.00;27.75;;;;;;;;5037450;28;45368;-78
2023/01/28 07:35:28;;;;;;;;;27.25;23.50;;;;;;;;5048883;28;45280;-79
2023/01/28 07:37:54;;;;;;;;;32.00;28.25;;;;;;;;5029614;28;45354;-80
2023/01/28 07:40:19;;;;;;;;;32.75;24.00;;;;;;;;5054261;28;45403;-80
2023/01/28 07:42:45;;;;;;;;;31.25;26.00;;;;;;;;5032300;28;45460;-80
2023/01/28 07:45:10;;;;;;;;;26.50;21.00;;;;;;;;5050426;28;45550;-80
2023/01/28 07:47:35;;;;;;;;;32.00;24.50;;;;;;;;5016378;28;47597;-80
2023/01/28 07:50:00;;;;;;;;;31.75;27.50;;;;;;;;5055958;27;45369;-80
2023/01/28 07:52:26;;;;;;;;;37.00;26.50;;;;;;;;5037301;28;45208;-80
2023/01/28 07:54:51;;;;;;;;;36.75;25.50;;;;;;;;5054480;28;45605;-80
2023/01/28 07:57:22;;;;;;;;;28.75;27.00;;;;;;;;5049549;28;45225;-81
2023/01/28 07:59:47;;;;;;;;;34.00;27.00;;;;;;;;5055508;28;45352;-81
2023/01/28 08:02:13;;;;;;;;;31.00;26.50;;;;;;;;5026828;28;45449;-81
2023/01/28 08:04:39;;;;;;;;;33.50;27.25;;;;;;;;5025991;28;47292;-81
2023/01/28 08:07:04;;;;;;;;;25.75;24.00;;;;;;;;5028289;27;45712;-79
2023/01/28 08:09:32;;;;;;;;;31.50;24.50;;;;;;;;5047950;28;44750;-80
2023/01/28 08:11:57;;;;;;;;;29.00;24.25;;;;;;;;5027424;27;45430;-79
2023/01/28 08:14:22;;;;;;;;;32.50;24.00;;;;;;;;5040892;28;45213;-80
2023/01/28 08:16:47;;;;;;;;;31.50;26.00;;;;;;;;5032402;28;45012;-80
2023/01/28 08:19:12;;;;;;;;;29.00;28.75;;;;;;;;5040337;28;45396;-79
2023/01/28 08:21:38;;;;;;;;;26.00;23.75;;;;;;;;5023904;28;45410;-78
2023/01/28 08:24:03;;;;;;;;;29.75;25.00;;;;;;;;5043935;28;45384;-78
2023/01/28 08:26:28;;;;;;;;;31.50;28.25;;;;;;;;5044144;28;46006;-79
2023/01/28 08:28:53;;;;;;;;;34.50;26.75;;;;;;;;5041742;28;45304;-79
2023/01/28 08:31:19;;;;;;;;;33.00;27.50;;;;;;;;5035303;28;45495;-80
2023/01/28 08:33:44;;;;;;;;;36.50;26.75;;;;;;;;5037720;28;45331;-78
2023/01/28 08:36:09;;;;;;;;;32.25;28.25;;;;;;;;5037705;28;45362;-78
2023/01/28 08:38:34;;;;;;;;;39.25;34.00;;;;;;;;5018303;28;45460;-80
2023/01/28 08:41:00;;;;;;;;;38.50;27.00;;;;;;;;5043170;28;45419;-79
2023/01/28 08:43:25;;;;;;;;;36.75;30.00;;;;;;;;5040166;28;45366;-79
2023/01/28 08:45:50;;;;;;;;;29.75;29.50;;;;;;;;5028139;28;47345;-80
2023/01/28 08:48:16;;;;;;;;;24.75;23.25;;;;;;;;5041611;28;45280;-80
2023/01/28 08:50:42;;;;;;;;;32.00;27.75;;;;;;;;5049439;28;45224;-80
2023/01/28 08:53:09;;;;;;;;;12.50;8.25;;;;;;;;5036144;28;45523;-80
2023/01/28 08:55:35;;;;;;;;;31.50;20.50;;;;;;;;5021694;28;47421;-80
2023/01/28 08:58:08;;;;;;;;;35.00;28.75;;;;;;;;5027425;28;45299;-79
2023/01/28 09:00:34;;;;;;;;;40.50;26.00;;;;;;;;5046540;28;45260;-80
2023/01/28 09:02:59;;;;;;;;;39.50;26.50;;;;;;;;5039077;28;45656;-79
2023/01/28 09:05:25;;;;;;;;;39.50;31.75;;;;;;;;5050569;27;45519;-80
2023/01/28 09:07:50;;;;;;;;;24.25;20.75;;;;;;;;5014741;28;45655;-80
2023/01/28 09:10:15;;;;;;;;;34.75;29.75;;;;;;;;5026028;28;45383;-79
2023/01/28 09:12:41;;;;;;;;;27.50;22.75;;;;;;;;5031635;27;45751;-80
2023/01/28 09:15:07;;;;;;;;;26.75;21.25;;;;;;;;5041193;28;45721;-79
2023/01/28 09:17:32;;;;;;;;;32.50;29.00;;;;;;;;5018588;28;45339;-79
2023/01/28 09:19:57;;;;;;;;;30.75;24.75;;;;;;;;5045784;28;45155;-80
2023/01/28 09:22:23;;;;;;;;;40.25;29.75;;;;;;;;5035189;28;45289;-80
2023/01/28 09:24:48;;;;;;;;;31.00;25.25;;;;;;;;5042347;28;45360;-77
2023/01/28 09:27:13;;;;;;;;;30.75;25.25;;;;;;;;5017548;28;45916;-80
2023/01/28 09:29:38;;;;;;;;;29.00;25.00;;;;;;;;5043394;28;45394;-79
2023/01/28 09:32:05;;;;;;;;;25.25;21.00;;;;;;;;5021857;28;46939;-80
2023/01/28 09:34:31;;;;;;;;;28.25;23.00;;;;;;;;5043212;28;45291;-80
2023/01/28 09:36:56;;;;;;;;;28.50;21.50;;;;;;;;5031525;28;45483;-80
2023/01/28 09:39:21;;;;;;;;;43.00;35.00;;;;;;;;5046351;28;45416;-80
2023/01/28 09:41:57;;;;;;;;;34.50;29.00;;;;;;;;5025306;28;45895;-80
2023/01/28 09:44:22;;;;;;;;;29.00;29.00;;;;;;;;5043779;28;46261;-78
2023/01/28 09:46:47;;;;;;;;;33.50;28.50;;;;;;;;5011922;28;45327;-79
2023/01/28 09:49:18;;;;;;;;;28.00;23.75;;;;;;;;5047830;27;45482;-80
2023/01/28 09:51:47;;;;;;;;;42.00;29.50;;;;;;;;5018076;28;46719;-79
2023/01/28 09:54:24;;;;;;;;;28.50;24.25;;;;;;;;5042558;27;45427;-77
2023/01/28 09:56:52;;;;;;;;;41.75;28.25;;;;;;;;5038065;28;45218;-79
2023/01/28 09:59:19;;;;;;;;;25.50;24.00;;;;;;;;5046309;28;44747;-76
2023/01/28 10:01:51;;;;;;;;;28.50;26.00;;;;;;;;5037134;27;45455;-78
2023/01/28 10:04:16;;;;;;;;;25.25;25.00;;;;;;;;5041827;28;45317;-77
2023/01/28 10:07:01;;;;;;;;;35.50;24.00;;;;;;;;5049249;28;45284;-76
2023/01/28 10:09:45;;;;;;;;;23.00;21.00;;;;;;;;5046500;28;45311;-76
2023/01/28 10:12:14;;;;;;;;;25.00;19.25;;;;;;;;5027417;27;46369;-76
2023/01/28 10:14:48;;;;;;;;;27.00;20.75;;;;;;;;5049200;28;46419;-75
2023/01/28 10:17:21;;;;;;;;;28.25;20.00;;;;;;;;5025751;27;45544;-77
2023/01/28 10:19:50;;;;;;;;;30.50;25.00;;;;;;;;5043995;28;45339;-78
2023/01/28 10:22:18;;;;;;;;;15.00;12.75;;;;;;;;5041574;28;45473;-75
2023/01/28 10:24:50;;;;;;;;;28.25;24.50;;;;;;;;5044535;28;45286;-78
2023/01/28 10:27:18;;;;;;;;;36.00;26.50;;;;;;;;5015363;27;45439;-78
2023/01/28 10:29:45;;;;;;;;;34.75;26.25;;;;;;;;5028067;28;45366;-78
2023/01/28 10:32:22;;;;;;;;;25.75;18.50;;;;;;;;5036429;27;45432;-78
2023/01/28 10:34:47;;;;;;;;;30.50;27.00;;;;;;;;5040823;28;45436;-77
2023/01/28 10:37:13;;;;;;;;;35.25;26.75;;;;;;;;5027476;28;45394;-79
2023/01/28 10:39:39;;;;;;;;;32.75;24.00;;;;;;;;5035610;28;45376;-78
2023/01/28 10:42:25;;;;;;;;;36.25;24.25;;;;;;;;5035584;28;45476;-78
2023/01/28 10:44:51;;;;;;;;;25.50;20.00;;;;;;;;5038661;28;45292;-77
2023/01/28 10:47:23;;;;;;;;;28.50;23.75;;;;;;;;5015802;27;45996;-76
2023/01/28 10:49:52;;;;;;;;;34.75;28.25;;;;;;;;5047863;28;45384;-78
2023/01/28 10:52:17;;;;;;;;;23.00;23.00;;;;;;;;5040839;28;45461;-77
2023/01/28 10:54:42;;;;;;;;;24.25;22.25;;;;;;;;5021592;28;47243;-78
2023/01/28 10:57:11;;;;;;;;;27.75;23.50;;;;;;;;5019006;28;45392;-78
2023/01/28 10:59:40;;;;;;;;;28.50;23.00;;;;;;;;5040939;28;45355;-78
2023/01/28 11:02:18;;;;;;;;;28.75;24.25;;;;;;;;5033320;28;45354;-77
2023/01/28 11:04:43;;;;;;;;;27.50;25.00;;;;;;;;5022713;27;47231;-76
2023/01/28 11:07:16;;;;;;;;;25.00;22.50;;;;;;;;5032307;28;45333;-78
2023/01/28 11:09:44;;;;;;;;;29.75;24.50;;;;;;;;5025573;28;45518;-78
2023/01/28 11:12:17;;;;;;;;;26.75;23.75;;;;;;;;5016627;27;47181;-77
2023/01/28 11:14:48;;;;;;;;;36.25;29.00;;;;;;;;5025660;28;47758;-79
2023/01/28 11:17:15;;;;;;;;;30.75;28.75;;;;;;;;5042013;27;45263;-78
2023/01/28 11:19:40;;;;;;;;;34.75;26.00;;;;;;;;5051175;28;45397;-78
2023/01/28 11:22:19;;;;;;;;;28.25;25.25;;;;;;;;5039204;27;46227;-77
2023/01/28 11:24:44;;;;;;;;;35.50;27.25;;;;;;;;5032523;28;46942;-77
2023/01/28 11:27:14;;;;;;;;;45.50;35.25;;;;;;;;5040701;28;45555;-77
2023/01/28 11:29:40;;;;;;;;;39.00;31.00;;;;;;;;5023178;28;45315;-77
2023/01/28 11:32:15;;;;;;;;;29.50;28.50;;;;;;;;5015164;28;45563;-76
2023/01/28 11:34:46;;;;;;;;;47.75;37.50;;;;;;;;5038168;27;45589;-76
2023/01/28 11:37:14;;;;;;;;;32.00;25.25;;;;;;;;5046435;28;45377;-76
2023/01/28 11:39:40;;;;;;;;;30.00;24.75;;;;;;;;5050130;28;45266;-76
2023/01/28 11:42:10;;;;;;;;;51.50;37.75;;;;;;;;5036140;28;45275;-77
2023/01/28 11:44:37;;;;;;;;;34.75;33.75;;;;;;;;5043923;28;45697;-78
2023/01/28 11:47:14;;;;;;;;;22.00;18.00;;;;;;;;5039178;28;45423;-76
2023/01/28 11:49:58;;;;;;;;;34.00;29.00;;;;;;;;5044375;28;45296;-77
2023/01/28 11:52:42;;;;;;;;;49.25;38.50;;;;;;;;5018915;28;46259;-76
2023/01/28 11:55:09;;;;;;;;;42.75;36.25;;;;;;;;5040339;28;46434;-77
2023/01/28 11:57:34;;;;;;;;;33.25;25.75;;;;;;;;5020496;28;45503;-76
2023/01/28 12:00:09;;;;;;;;;35.50;28.50;;;;;;;;5045894;28;45318;-77
2023/01/28 12:02:43;;;;;;;;;32.75;24.50;;;;;;;;5032552;28;45383;-75
2023/01/28 12:05:08;;;;;;;;;34.75;30.25;;;;;;;;5048224;28;46344;-75
2023/01/28 12:07:46;;;;;;;;;29.00;25.00;;;;;;;;5036324;28;45270;-76
2023/01/28 12:10:30;;;;;;;;;36.00;28.00;;;;;;;;5049559;28;45627;-75
2023/01/28 12:12:55;;;;;;;;;34.00;25.50;;;;;;;;5036078;27;45486;-75
2023/01/28 12:15:30;;;;;;;;;35.75;27.25;;;;;;;;5049034;28;45603;-75
2023/01/28 12:18:04;;;;;;;;;30.75;22.00;;;;;;;;5032649;28;45272;-75
2023/01/28 12:20:37;;;;;;;;;22.50;19.00;;;;;;;;5030313;27;45443;-76
2023/01/28 12:23:08;;;;;;;;;32.25;24.25;;;;;;;;5059915;28;45663;-75
2023/01/28 12:25:52;;;;;;;;;29.50;20.00;;;;;;;;5040308;28;45365;-75
2023/01/28 12:28:43;;;;;;;;;38.00;34.50;;;;;;;;5037352;28;45443;-74
2023/01/28 12:31:27;;;;;;;;;39.75;33.75;;;;;;;;5016076;27;45370;-74
2023/01/28 12:34:11;;;;;;;;;29.50;20.25;;;;;;;;5036637;28;45413;-74
2023/01/28 12:36:45;;;;;;;;;31.50;22.25;;;;;;;;5020270;28;45376;-75
2023/01/28 12:39:22;;;;;;;;;37.50;27.25;;;;;;;;5042652;28;45168;-75
2023/01/28 12:41:55;;;;;;;;;31.25;27.50;;;;;;;;5036805;28;45295;-77
2023/01/28 12:44:28;;;;;;;;;38.50;26.75;;;;;;;;5038519;28;45277;-76
2023/01/28 12:47:01;;;;;;;;;29.00;25.50;;;;;;;;5009976;28;47024;-78
2023/01/28 12:49:26;;;;;;;;;39.75;25.00;;;;;;;;5039516;28;45312;-78
2023/01/28 12:51:59;;;;;;;;;26.50;23.25;;;;;;;;5047568;28;45563;-76
2023/01/28 12:54:33;;;;;;;;;37.75;30.75;;;;;;;;5063358;28;46115;-78
2023/01/28 12:56:59;;;;;;;;;27.00;26.00;;;;;;;;5042555;28;45416;-78
2023/01/28 12:59:44;;;;;;;;;30.00;25.25;;;;;;;;5051811;28;45278;-76
2023/01/28 13:02:09;;;;;;;;;18.25;18.25;;;;;;;;5046689;27;45352;-75
2023/01/28 13:04:39;;;;;;;;;27.75;22.50;;;;;;;;5024721;27;46066;-77
2023/01/28 13:07:12;;;;;;;;;24.00;21.25;;;;;;;;5037905;28;45438;-76
2023/01/28 13:09:42;;;;;;;;;19.50;17.75;;;;;;;;5050434;28;45444;-78
2023/01/28 13:12:10;;;;;;;;;21.75;18.75;;;;;;;;5039888;27;45229;-79
2023/01/28 13:14:35;;;;;;;;;24.75;22.25;;;;;;;;5040147;28;45591;-79
2023/01/28 13:17:24;;;;;;;;;22.25;19.50;;;;;;;;5037214;28;45345;-79
2023/01/28 13:19:49;;;;;;;;;30.00;20.75;;;;;;;;5061131;27;45333;-82
2023/01/28 13:22:32;;;;;;;;;34.25;25.00;;;;;;;;5035299;28;45449;-80
2023/01/28 13:25:11;;;;;;;;;27.75;23.75;;;;;;;;5035716;28;45326;-79
2023/01/28 13:27:36;;;;;;;;;29.75;21.75;;;;;;;;5030973;28;46460;-82
2023/01/28 13:30:21;;;;;;;;;26.50;20.75;;;;;;;;5040027;28;45234;-78
2023/01/28 13:32:54;;;;;;;;;34.50;21.25;;;;;;;;5031566;28;45287;-77
2023/01/28 13:35:39;;;;;;;;;33.00;25.25;;;;;;;;5047805;27;45678;-79
2023/01/28 13:38:12;;;;;;;;;24.75;21.75;;;;;;;;5041751;28;45353;-78
2023/01/28 13:40:39;;;;;;;;;25.00;21.25;;;;;;;;5042492;28;45342;-77
2023/01/28 13:43:05;;;;;;;;;23.00;16.00;;;;;;;;5037422;28;45185;-78
2023/01/28 13:45:32;;;;;;;;;24.00;18.50;;;;;;;;5046954;28;45284;-77
2023/01/28 13:48:00;;;;;;;;;26.25;24.00;;;;;;;;5044335;28;45520;-78
2023/01/28 13:50:32;;;;;;;;;27.25;16.00;;;;;;;;5067548;27;45331;-78
2023/01/28 13:53:01;;;;;;;;;24.75;22.00;;;;;;;;5038559;28;45397;-78
2023/01/28 13:55:30;;;;;;;;;26.50;24.75;;;;;;;;5024838;28;46231;-78
2023/01/28 13:58:04;;;;;;;;;26.75;23.75;;;;;;;;5032957;27;47721;-78
2023/01/28 14:00:48;;;;;;;;;34.25;23.75;;;;;;;;5043738;28;44846;-79
2023/01/28 14:03:33;;;;;;;;;24.25;19.75;;;;;;;;5018249;28;45263;-79
2023/01/28 14:06:21;;;;;;;;;32.00;24.50;;;;;;;;5038827;28;46115;-78
2023/01/28 14:09:05;;;;;;;;;21.00;19.25;;;;;;;;5021516;28;47466;-79
2023/01/28 14:11:49;;;;;;;;;24.25;23.75;;;;;;;;5003587;27;45278;-80
2023/01/28 14:14:23;;;;;;;;;25.25;22.75;;;;;;;;5045239;28;45350;-80
2023/01/28 14:16:57;;;;;;;;;32.75;25.00;;;;;;;;5029625;27;45613;-80
2023/01/28 14:19:31;;;;;;;;;33.00;28.00;;;;;;;;5024906;28;48220;-81
2023/01/28 14:21:56;;;;;;;;;40.75;28.00;;;;;;;;5037201;28;45708;-79
2023/01/28 14:24:22;;;;;;;;;26.25;21.25;;;;;;;;5047100;28;45274;-80
2023/01/28 14:26:47;;;;;;;;;29.50;25.75;;;;;;;;5034217;28;45444;-78
2023/01/28 14:29:17;;;;;;;;;32.50;27.25;;;;;;;;5037787;28;45340;-81
2023/01/28 14:31:42;;;;;;;;;31.00;25.50;;;;;;;;5034531;28;45298;-79
2023/01/28 14:34:26;;;;;;;;;29.50;26.00;;;;;;;;5019206;28;45374;-82
2023/01/28 14:36:55;;;;;;;;;34.00;26.75;;;;;;;;5038995;28;45227;-83
2023/01/28 14:39:25;;;;;;;;;35.75;26.25;;;;;;;;5043913;27;47190;-80
2023/01/28 14:41:51;;;;;;;;;48.50;38.75;;;;;;;;5020803;28;45285;-81
2023/01/28 14:44:23;;;;;;;;;44.50;34.50;;;;;;;;5038868;27;45306;-80
2023/01/28 14:46:56;;;;;;;;;36.75;27.00;;;;;;;;5020249;27;45685;-79
2023/01/28 14:49:38;;;;;;;;;35.50;23.00;;;;;;;;5040734;27;45689;-79
2023/01/28 14:52:39;;;;;;;;;39.50;33.00;;;;;;;;5034256;28;45422;-80